sensor_id;sensor_type;location;lat;lon;timestamp;pressure;altitude;pressure_sealevel;temperature;humidity
68508;BME280;55510;49.560;19.090;2024-01-25T05:55:07;96347.81;;;3.13;94.44
68508;BME280;55510;49.560;19.090;2024-01-25T05:58:08;96334.69;;;3.26;94.07
68508;BME280;55510;49.560;19.090;2024-01-25T06:01:09;96348.47;;;3.28;95.46
68508;BME280;55510;49.560;19.090;2024-01-25T06:04:10;96339.59;;;3.43;94.65
68508;BME280;55510;49.560;19.090;2024-01-25T06:07:11;96333.75;;;3.54;94.45
68508;BME280;55510;49.560;19.090;2024-01-25T06:10:12;96327.31;;;3.77;93.29
68508;BME280;55510;49.560;19.090;2024-01-25T06:13:13;96326.88;;;3.94;91.63
68508;BME280;55510;49.560;19.090;2024-01-25T06:16:15;96313.31;;;3.97;91.73
68508;BME280;55510;49.560;19.090;2024-01-25T06:19:15;96313.75;;;4.07;88.59
68508;BME280;55510;49.560;19.090;2024-01-25T06:22:16;96317.34;;;4.33;82.93
68508;BME280;55510;49.560;19.090;2024-01-25T06:25:17;96315.50;;;4.40;80.69
68508;BME280;55510;49.560;19.090;2024-01-25T06:28:18;96320.75;;;4.54;80.08
68508;BME280;55510;49.560;19.090;2024-01-25T06:31:19;96321.78;;;4.53;80.57
68508;BME280;55510;49.560;19.090;2024-01-25T06:34:20;96318.53;;;4.50;81.00
68508;BME280;55510;49.560;19.090;2024-01-25T06:37:21;96325.63;;;4.57;81.13
68508;BME280;55510;49.560;19.090;2024-01-25T06:40:21;96317.25;;;4.73;80.50
68508;BME280;55510;49.560;19.090;2024-01-25T06:43:22;61888.91;;;-147.19;100.00
68508;BME280;55510;49.560;19.090;2024-01-25T06:46:23;61888.91;;;-147.19;100.00
68508;BME280;55510;49.560;19.090;2024-01-25T06:49:23;61888.91;;;-147.19;100.00
68508;BME280;55510;49.560;19.090;2024-01-25T06:52:24;61888.91;;;-147.19;100.00
68508;BME280;55510;49.560;19.090;2024-01-25T06:55:24;61888.91;;;-147.19;100.00
68508;BME280;55510;49.560;19.090;2024-01-25T06:58:25;61888.91;;;-147.19;100.00
68508;BME280;55510;49.560;19.090;2024-01-25T07:01:26;61888.91;;;-147.19;100.00
68508;BME280;55510;49.560;19.090;2024-01-25T07:04:29;61888.91;;;-147.19;100.00
68508;BME280;55510;49.560;19.090;2024-01-25T07:07:29;61888.91;;;-147.19;100.00
68508;BME280;55510;49.560;19.090;2024-01-25T07:10:32;61888.91;;;-147.19;100.00
68508;BME280;55510;49.560;19.090;2024-01-25T07:13:33;61888.91;;;-147.19;100.00
68508;BME280;55510;49.560;19.090;2024-01-25T07:16:34;61888.91;;;-147.19;100.00
68508;BME280;55510;49.560;19.090;2024-01-25T07:19:34;61888.91;;;-147.19;100.00
68508;BME280;55510;49.560;19.090;2024-01-25T07:22:35;61888.91;;;-147.19;100.00
68508;BME280;55510;49.560;19.090;2024-01-25T07:25:36;61888.91;;;-147.19;100.00
68508;BME280;55510;49.560;19.090;2024-01-25T07:28:37;61888.91;;;-147.19;100.00
68508;BME280;55510;49.560;19.090;2024-01-25T07:31:37;61888.91;;;-147.19;100.00
68508;BME280;55510;49.560;19.090;2024-01-25T07:34:38;61888.91;;;-147.19;100.00
68508;BME280;55510;49.560;19.090;2024-01-25T07:37:39;61888.91;;;-147.19;100.00
68508;BME280;55510;49.560;19.090;2024-01-25T07:40:41;61888.91;;;-147.19;100.00
68508;BME280;55510;49.560;19.090;2024-01-25T07:43:42;61888.91;;;-147.19;100.00
68508;BME280;55510;49.560;19.090;2024-01-25T07:46:43;61888.91;;;-147.19;100.00
68508;BME280;55510;49.560;19.090;2024-01-25T07:49:44;61888.91;;;-147.19;100.00
68508;BME280;55510;49.560;19.090;2024-01-25T07:52:44;61888.91;;;-147.19;100.00
68508;BME280;55510;49.560;19.090;2024-01-25T07:55:45;61888.91;;;-147.19;100.00
68508;BME280;55510;49.560;19.090;2024-01-25T07:58:46;61888.91;;;-147.19;100.00
68508;BME280;55510;49.560;19.090;2024-01-25T08:01:46;61888.91;;;-147.19;100.00
68508;BME280;55510;49.560;19.090;2024-01-25T08:04:47;61888.91;;;-147.19;100.00
68508;BME280;55510;49.560;19.090;2024-01-25T08:07:48;61888.91;;;-147.19;100.00
68508;BME280;55510;49.560;19.090;2024-01-25T08:10:49;61888.91;;;-147.19;100.00
68508;BME280;55510;49.560;19.090;2024-01-25T08:13:50;61888.91;;;-147.19;100.00
68508;BME280;55510;49.560;19.090;2024-01-25T08:16:51;61888.91;;;-147.19;100.00
68508;BME280;55510;49.560;19.090;2024-01-25T08:19:51;61888.91;;;-147.19;100.00
68508;BME280;55510;49.560;19.090;2024-01-25T08:22:52;61888.91;;;-147.19;100.00
68508;BME280;55510;49.560;19.090;2024-01-25T08:25:53;61888.91;;;-147.19;100.00
68508;BME280;55510;49.560;19.090;2024-01-25T08:28:53;61888.91;;;-147.19;100.00
68508;BME280;55510;49.560;19.090;2024-01-25T08:31:54;61888.91;;;-147.19;100.00
68508;BME280;55510;49.560;19.090;2024-01-25T08:34:55;61888.91;;;-147.19;100.00
68508;BME280;55510;49.560;19.090;2024-01-25T08:37:55;61888.91;;;-147.19;100.00
68508;BME280;55510;49.560;19.090;2024-01-25T08:40:56;61888.91;;;-147.19;100.00
68508;BME280;55510;49.560;19.090;2024-01-25T08:43:57;61888.91;;;-147.19;100.00
68508;BME280;55510;49.560;19.090;2024-01-25T08:46:57;61888.91;;;-147.19;100.00
68508;BME280;55510;49.560;19.090;2024-01-25T08:49:58;61888.91;;;-147.19;100.00
68508;BME280;55510;49.560;19.090;2024-01-25T08:52:59;61888.91;;;-147.19;100.00
68508;BME280;55510;49.560;19.090;2024-01-25T08:56:00;61888.91;;;-147.19;100.00
68508;BME280;55510;49.560;19.090;2024-01-25T08:59:00;61888.91;;;-147.19;100.00
68508;BME280;55510;49.560;19.090;2024-01-25T09:02:01;61888.91;;;-147.19;100.00
68508;BME280;55510;49.560;19.090;2024-01-25T09:05:04;61888.91;;;-147.19;100.00
68508;BME280;55510;49.560;19.090;2024-01-25T09:08:05;61888.91;;;-147.19;100.00
68508;BME280;55510;49.560;19.090;2024-01-25T09:11:05;61888.91;;;-147.19;100.00
68508;BME280;55510;49.560;19.090;2024-01-25T09:14:06;61888.91;;;-147.19;100.00
68508;BME280;55510;49.560;19.090;2024-01-25T09:17:07;61888.91;;;-147.19;100.00
68508;BME280;55510;49.560;19.090;2024-01-25T09:20:08;61888.91;;;-147.19;100.00
68508;BME280;55510;49.560;19.090;2024-01-25T09:23:09;61888.91;;;-147.19;100.00
68508;BME280;55510;49.560;19.090;2024-01-25T09:26:10;61888.91;;;-147.19;100.00
68508;BME280;55510;49.560;19.090;2024-01-25T09:29:11;61888.91;;;-147.19;100.00
68508;BME280;55510;49.560;19.090;2024-01-25T09:32:11;61888.91;;;-147.19;100.00
68508;BME280;55510;49.560;19.090;2024-01-25T09:35:12;61888.91;;;-147.19;100.00
68508;BME280;55510;49.560;19.090;2024-01-25T09:38:13;61888.91;;;-147.19;100.00
68508;BME280;55510;49.560;19.090;2024-01-25T09:41:14;61888.91;;;-147.19;100.00
68508;BME280;55510;49.560;19.090;2024-01-25T09:44:15;61888.91;;;-147.19;100.00
68508;BME280;55510;49.560;19.090;2024-01-25T09:47:18;61888.91;;;-147.19;100.00
68508;BME280;55510;49.560;19.090;2024-01-25T09:50:20;61888.91;;;-147.19;100.00
68508;BME280;55510;49.560;19.090;2024-01-25T09:53:23;61888.91;;;-147.19;100.00
68508;BME280;55510;49.560;19.090;2024-01-25T09:56:23;61888.91;;;-147.19;100.00
68508;BME280;55510;49.560;19.090;2024-01-25T09:59:25;61888.91;;;-147.19;100.00
68508;BME280;55510;49.560;19.090;2024-01-25T10:02:26;61888.91;;;-147.19;100.00
68508;BME280;55510;49.560;19.090;2024-01-25T10:05:27;61888.91;;;-147.19;100.00
68508;BME280;55510;49.560;19.090;2024-01-25T10:08:29;61888.91;;;-147.19;100.00
68508;BME280;55510;49.560;19.090;2024-01-25T10:11:30;61888.91;;;-147.19;100.00
68508;BME280;55510;49.560;19.090;2024-01-25T10:14:35;61888.91;;;-147.19;100.00
68508;BME280;55510;49.560;19.090;2024-01-25T10:17:36;61888.91;;;-147.19;100.00
68508;BME280;55510;49.560;19.090;2024-01-25T10:20:37;61888.91;;;-147.19;100.00
68508;BME280;55510;49.560;19.090;2024-01-25T10:23:38;61888.91;;;-147.19;100.00
68508;BME280;55510;49.560;19.090;2024-01-25T10:26:40;61888.91;;;-147.19;100.00
68508;BME280;55510;49.560;19.090;2024-01-25T10:29:42;61888.91;;;-147.19;100.00
68508;BME280;55510;49.560;19.090;2024-01-25T10:32:43;61888.91;;;-147.19;100.00
68508;BME280;55510;49.560;19.090;2024-01-25T10:35:46;61888.91;;;-147.19;100.00
68508;BME280;55510;49.560;19.090;2024-01-25T10:38:52;61888.91;;;-147.19;100.00
68508;BME280;55510;49.560;19.090;2024-01-25T10:41:55;61888.91;;;-147.19;100.00
68508;BME280;55510;49.560;19.090;2024-01-25T10:44:57;61888.91;;;-147.19;100.00
68508;BME280;55510;49.560;19.090;2024-01-25T10:47:59;61888.91;;;-147.19;100.00
68508;BME280;55510;49.560;19.090;2024-01-25T10:51:00;61888.91;;;-147.19;100.00
68508;BME280;55510;49.560;19.090;2024-01-25T10:54:03;61888.91;;;-147.19;100.00
68508;BME280;55510;49.560;19.090;2024-01-25T10:57:06;61888.91;;;-147.19;100.00
68508;BME280;55510;49.560;19.090;2024-01-25T11:00:09;61888.91;;;-147.19;100.00
68508;BME280;55510;49.560;19.090;2024-01-25T11:03:10;61888.91;;;-147.19;100.00
68508;BME280;55510;49.560;19.090;2024-01-25T11:06:12;61888.91;;;-147.19;100.00
68508;BME280;55510;49.560;19.090;2024-01-25T11:09:18;61888.91;;;-147.19;100.00
68508;BME280;55510;49.560;19.090;2024-01-25T11:12:19;61888.91;;;-147.19;100.00
68508;BME280;55510;49.560;19.090;2024-01-25T11:15:35;61888.91;;;-147.19;100.00
68508;BME280;55510;49.560;19.090;2024-01-25T11:18:36;61888.91;;;-147.19;100.00
68508;BME280;55510;49.560;19.090;2024-01-25T11:21:48;61888.91;;;-147.19;100.00
68508;BME280;55510;49.560;19.090;2024-01-25T11:24:50;61888.91;;;-147.19;100.00
68508;BME280;55510;49.560;19.090;2024-01-25T11:27:50;61888.91;;;-147.19;100.00
68508;BME280;55510;49.560;19.090;2024-01-25T11:30:51;61888.91;;;-147.19;100.00
68508;BME280;55510;49.560;19.090;2024-01-25T11:33:56;61888.91;;;-147.19;100.00
68508;BME280;55510;49.560;19.090;2024-01-25T11:36:57;61888.91;;;-147.19;100.00
68508;BME280;55510;49.560;19.090;2024-01-25T11:40:00;61888.91;;;-147.19;100.00
68508;BME280;55510;49.560;19.090;2024-01-25T11:43:01;61888.91;;;-147.19;100.00
68508;BME280;55510;49.560;19.090;2024-01-25T11:46:03;61888.91;;;-147.19;100.00
68508;BME280;55510;49.560;19.090;2024-01-25T11:49:04;61888.91;;;-147.19;100.00
68508;BME280;55510;49.560;19.090;2024-01-25T11:52:04;61888.91;;;-147.19;100.00
68508;BME280;55510;49.560;19.090;2024-01-25T11:55:09;61888.91;;;-147.19;100.00
68508;BME280;55510;49.560;19.090;2024-01-25T11:58:10;61888.91;;;-147.19;100.00
68508;BME280;55510;49.560;19.090;2024-01-25T12:01:11;61888.91;;;-147.19;100.00
68508;BME280;55510;49.560;19.090;2024-01-25T12:04:12;61888.91;;;-147.19;100.00
68508;BME280;55510;49.560;19.090;2024-01-25T12:07:17;61888.91;;;-147.19;100.00
68508;BME280;55510;49.560;19.090;2024-01-25T12:10:18;61888.91;;;-147.19;100.00
68508;BME280;55510;49.560;19.090;2024-01-25T12:13:19;61888.91;;;-147.19;100.00
68508;BME280;55510;49.560;19.090;2024-01-25T12:16:19;61888.91;;;-147.19;100.00
68508;BME280;55510;49.560;19.090;2024-01-25T12:19:20;61888.91;;;-147.19;100.00
68508;BME280;55510;49.560;19.090;2024-01-25T12:22:21;61888.91;;;-147.19;100.00
68508;BME280;55510;49.560;19.090;2024-01-25T12:25:22;61888.91;;;-147.19;100.00
68508;BME280;55510;49.560;19.090;2024-01-25T12:28:26;61888.91;;;-147.19;100.00
68508;BME280;55510;49.560;19.090;2024-01-25T12:31:27;61888.91;;;-147.19;100.00
68508;BME280;55510;49.560;19.090;2024-01-25T12:34:27;61888.91;;;-147.19;100.00
68508;BME280;55510;49.560;19.090;2024-01-25T12:37:28;61888.91;;;-147.19;100.00
68508;BME280;55510;49.560;19.090;2024-01-25T12:40:28;61888.91;;;-147.19;100.00
68508;BME280;55510;49.560;19.090;2024-01-25T12:43:29;61888.91;;;-147.19;100.00
68508;BME280;55510;49.560;19.090;2024-01-25T12:46:30;61888.91;;;-147.19;100.00
68508;BME280;55510;49.560;19.090;2024-01-25T12:49:30;61888.91;;;-147.19;100.00
68508;BME280;55510;49.560;19.090;2024-01-25T12:52:32;61888.91;;;-147.19;100.00
68508;BME280;55510;49.560;19.090;2024-01-25T12:55:33;61888.91;;;-147.19;100.00
68508;BME280;55510;49.560;19.090;2024-01-25T12:58:34;61888.91;;;-147.19;100.00
68508;BME280;55510;49.560;19.090;2024-01-25T13:01:35;61888.91;;;-147.19;100.00
68508;BME280;55510;49.560;19.090;2024-01-25T13:04:36;61888.91;;;-147.19;100.00
68508;BME280;55510;49.560;19.090;2024-01-25T13:07:37;61888.91;;;-147.19;100.00
68508;BME280;55510;49.560;19.090;2024-01-25T13:10:37;61888.91;;;-147.19;100.00
68508;BME280;55510;49.560;19.090;2024-01-25T13:13:38;61888.91;;;-147.19;100.00
68508;BME280;55510;49.560;19.090;2024-01-25T13:16:38;61888.91;;;-147.19;100.00
68508;BME280;55510;49.560;19.090;2024-01-25T13:19:39;61888.91;;;-147.19;100.00
68508;BME280;55510;49.560;19.090;2024-01-25T13:22:40;61888.91;;;-147.19;100.00
68508;BME280;55510;49.560;19.090;2024-01-25T13:25:41;61888.91;;;-147.19;100.00
68508;BME280;55510;49.560;19.090;2024-01-25T13:28:41;61888.91;;;-147.19;100.00
68508;BME280;55510;49.560;19.090;2024-01-25T13:31:42;61888.91;;;-147.19;100.00
68508;BME280;55510;49.560;19.090;2024-01-25T13:34:43;61888.91;;;-147.19;100.00
68508;BME280;55510;49.560;19.090;2024-01-25T13:37:43;61888.91;;;-147.19;100.00
68508;BME280;55510;49.560;19.090;2024-01-25T13:40:44;61888.91;;;-147.19;100.00
68508;BME280;55510;49.560;19.090;2024-01-25T13:43:45;61888.91;;;-147.19;100.00
68508;BME280;55510;49.560;19.090;2024-01-25T13:46:45;61888.91;;;-147.19;100.00
68508;BME280;55510;49.560;19.090;2024-01-25T13:49:46;61888.91;;;-147.19;100.00
68508;BME280;55510;49.560;19.090;2024-01-25T13:52:47;61888.91;;;-147.19;100.00
68508;BME280;55510;49.560;19.090;2024-01-25T13:55:47;61888.91;;;-147.19;100.00
68508;BME280;55510;49.560;19.090;2024-01-25T13:58:48;61888.91;;;-147.19;100.00
68508;BME280;55510;49.560;19.090;2024-01-25T14:01:49;61888.91;;;-147.19;100.00
68508;BME280;55510;49.560;19.090;2024-01-25T14:04:50;61888.91;;;-147.19;100.00
68508;BME280;55510;49.560;19.090;2024-01-25T14:07:51;61888.91;;;-147.19;100.00
68508;BME280;55510;49.560;19.090;2024-01-25T14:10:51;61888.91;;;-147.19;100.00
68508;BME280;55510;49.560;19.090;2024-01-25T14:13:52;61888.91;;;-147.19;100.00
68508;BME280;55510;49.560;19.090;2024-01-25T14:16:53;61888.91;;;-147.19;100.00
68508;BME280;55510;49.560;19.090;2024-01-25T14:19:54;61888.91;;;-147.19;100.00
68508;BME280;55510;49.560;19.090;2024-01-25T14:22:54;61888.91;;;-147.19;100.00
68508;BME280;55510;49.560;19.090;2024-01-25T14:25:55;61888.91;;;-147.19;100.00
68508;BME280;55510;49.560;19.090;2024-01-25T14:28:56;61888.91;;;-147.19;100.00
68508;BME280;55510;49.560;19.090;2024-01-25T14:31:56;61888.91;;;-147.19;100.00
68508;BME280;55510;49.560;19.090;2024-01-25T14:34:57;61888.91;;;-147.19;100.00
68508;BME280;55510;49.560;19.090;2024-01-25T14:37:58;61888.91;;;-147.19;100.00
68508;BME280;55510;49.560;19.090;2024-01-25T14:40:58;61888.91;;;-147.19;100.00
68508;BME280;55510;49.560;19.090;2024-01-25T14:44:00;61888.91;;;-147.19;100.00
68508;BME280;55510;49.560;19.090;2024-01-25T14:47:01;61888.91;;;-147.19;100.00
68508;BME280;55510;49.560;19.090;2024-01-25T14:50:02;61888.91;;;-147.19;100.00
68508;BME280;55510;49.560;19.090;2024-01-25T14:53:03;61888.91;;;-147.19;100.00
68508;BME280;55510;49.560;19.090;2024-01-25T14:56:04;61888.91;;;-147.19;100.00
68508;BME280;55510;49.560;19.090;2024-01-25T14:59:05;61888.91;;;-147.19;100.00
68508;BME280;55510;49.560;19.090;2024-01-25T15:02:06;61888.91;;;-147.19;100.00
68508;BME280;55510;49.560;19.090;2024-01-25T15:05:06;61888.91;;;-147.19;100.00
68508;BME280;55510;49.560;19.090;2024-01-25T15:08:08;61888.91;;;-147.19;100.00
68508;BME280;55510;49.560;19.090;2024-01-25T15:11:08;61888.91;;;-147.19;100.00
68508;BME280;55510;49.560;19.090;2024-01-25T15:14:09;61888.91;;;-147.19;100.00
68508;BME280;55510;49.560;19.090;2024-01-25T15:17:09;61888.91;;;-147.19;100.00
68508;BME280;55510;49.560;19.090;2024-01-25T15:20:10;61888.91;;;-147.19;100.00
68508;BME280;55510;49.560;19.090;2024-01-25T15:23:11;61888.91;;;-147.19;100.00
68508;BME280;55510;49.560;19.090;2024-01-25T15:26:12;61888.91;;;-147.19;100.00
68508;BME280;55510;49.560;19.090;2024-01-25T15:29:13;61888.91;;;-147.19;100.00
68508;BME280;55510;49.560;19.090;2024-01-25T15:32:13;61888.91;;;-147.19;100.00
68508;BME280;55510;49.560;19.090;2024-01-25T15:35:14;61888.91;;;-147.19;100.00
68508;BME280;55510;49.560;19.090;2024-01-25T15:38:15;61888.91;;;-147.19;100.00
68508;BME280;55510;49.560;19.090;2024-01-25T15:41:18;61888.91;;;-147.19;100.00
68508;BME280;55510;49.560;19.090;2024-01-25T15:44:22;61888.91;;;-147.19;100.00
68508;BME280;55510;49.560;19.090;2024-01-25T15:47:22;61888.91;;;-147.19;100.00
68508;BME280;55510;49.560;19.090;2024-01-25T15:50:23;61888.91;;;-147.19;100.00
68508;BME280;55510;49.560;19.090;2024-01-25T15:53:24;61888.91;;;-147.19;100.00
68508;BME280;55510;49.560;19.090;2024-01-25T15:56:25;61888.91;;;-147.19;100.00
68508;BME280;55510;49.560;19.090;2024-01-25T15:59:25;61888.91;;;-147.19;100.00
68508;BME280;55510;49.560;19.090;2024-01-25T16:02:26;61888.91;;;-147.19;100.00
68508;BME280;55510;49.560;19.090;2024-01-25T16:05:26;61888.91;;;-147.19;100.00
68508;BME280;55510;49.560;19.090;2024-01-25T16:08:27;61888.91;;;-147.19;100.00
68508;BME280;55510;49.560;19.090;2024-01-25T16:11:28;61888.91;;;-147.19;100.00
68508;BME280;55510;49.560;19.090;2024-01-25T16:14:29;61888.91;;;-147.19;100.00
68508;BME280;55510;49.560;19.090;2024-01-25T16:17:29;61888.91;;;-147.19;100.00
68508;BME280;55510;49.560;19.090;2024-01-25T16:20:30;61888.91;;;-147.19;100.00
68508;BME280;55510;49.560;19.090;2024-01-25T16:23:31;61888.91;;;-147.19;100.00
68508;BME280;55510;49.560;19.090;2024-01-25T16:26:32;61888.91;;;-147.19;100.00
68508;BME280;55510;49.560;19.090;2024-01-25T16:29:32;61888.91;;;-147.19;100.00
68508;BME280;55510;49.560;19.090;2024-01-25T16:32:33;61888.91;;;-147.19;100.00
68508;BME280;55510;49.560;19.090;2024-01-25T16:35:35;61888.91;;;-147.19;100.00
68508;BME280;55510;49.560;19.090;2024-01-25T16:38:35;61888.91;;;-147.19;100.00
68508;BME280;55510;49.560;19.090;2024-01-25T16:41:36;61888.91;;;-147.19;100.00
68508;BME280;55510;49.560;19.090;2024-01-25T16:44:37;61888.91;;;-147.19;100.00
68508;BME280;55510;49.560;19.090;2024-01-25T16:47:37;61888.91;;;-147.19;100.00
68508;BME280;55510;49.560;19.090;2024-01-25T16:50:38;61888.91;;;-147.19;100.00
68508;BME280;55510;49.560;19.090;2024-01-25T16:53:38;61888.91;;;-147.19;100.00
68508;BME280;55510;49.560;19.090;2024-01-25T16:56:39;61888.91;;;-147.19;100.00
68508;BME280;55510;49.560;19.090;2024-01-25T16:59:40;61888.91;;;-147.19;100.00
68508;BME280;55510;49.560;19.090;2024-01-25T17:02:41;61888.91;;;-147.19;100.00
68508;BME280;55510;49.560;19.090;2024-01-25T17:05:41;61888.91;;;-147.19;100.00
68508;BME280;55510;49.560;19.090;2024-01-25T17:08:42;61888.91;;;-147.19;100.00
68508;BME280;55510;49.560;19.090;2024-01-25T17:11:43;61888.91;;;-147.19;100.00
68508;BME280;55510;49.560;19.090;2024-01-25T17:14:43;61888.91;;;-147.19;100.00
68508;BME280;55510;49.560;19.090;2024-01-25T17:17:44;61888.91;;;-147.19;100.00
68508;BME280;55510;49.560;19.090;2024-01-25T17:20:45;61888.91;;;-147.19;100.00
68508;BME280;55510;49.560;19.090;2024-01-25T17:23:45;61888.91;;;-147.19;100.00
68508;BME280;55510;49.560;19.090;2024-01-25T17:26:46;61888.91;;;-147.19;100.00
68508;BME280;55510;49.560;19.090;2024-01-25T17:29:46;61888.91;;;-147.19;100.00
68508;BME280;55510;49.560;19.090;2024-01-25T17:32:47;61888.91;;;-147.19;100.00
68508;BME280;55510;49.560;19.090;2024-01-25T17:35:48;61888.91;;;-147.19;100.00
68508;BME280;55510;49.560;19.090;2024-01-25T17:38:48;61888.91;;;-147.19;100.00
68508;BME280;55510;49.560;19.090;2024-01-25T17:41:49;61888.91;;;-147.19;100.00
68508;BME280;55510;49.560;19.090;2024-01-25T17:44:52;61888.91;;;-147.19;100.00
68508;BME280;55510;49.560;19.090;2024-01-25T17:47:52;61888.91;;;-147.19;100.00
68508;BME280;55510;49.560;19.090;2024-01-25T17:50:54;61888.91;;;-147.19;100.00
68508;BME280;55510;49.560;19.090;2024-01-25T17:53:57;61888.91;;;-147.19;100.00
68508;BME280;55510;49.560;19.090;2024-01-25T17:56:58;61888.91;;;-147.19;100.00
68508;BME280;55510;49.560;19.090;2024-01-25T17:59:59;61888.91;;;-147.19;100.00
68508;BME280;55510;49.560;19.090;2024-01-25T18:03:00;61888.91;;;-147.19;100.00
68508;BME280;55510;49.560;19.090;2024-01-25T18:06:00;61888.91;;;-147.19;100.00
68508;BME280;55510;49.560;19.090;2024-01-25T18:09:01;61888.91;;;-147.19;100.00
68508;BME280;55510;49.560;19.090;2024-01-25T18:16:18;61888.91;;;-147.19;100.00
68508;BME280;55510;49.560;19.090;2024-01-25T18:19:18;61888.91;;;-147.19;100.00
68508;BME280;55510;49.560;19.090;2024-01-25T18:22:19;61888.91;;;-147.19;100.00
68508;BME280;55510;49.560;19.090;2024-01-25T18:25:20;61888.91;;;-147.19;100.00
68508;BME280;55510;49.560;19.090;2024-01-25T18:28:20;61888.91;;;-147.19;100.00
68508;BME280;55510;49.560;19.090;2024-01-25T18:31:21;61888.91;;;-147.19;100.00
68508;BME280;55510;49.560;19.090;2024-01-25T18:34:22;61888.91;;;-147.19;100.00
68508;BME280;55510;49.560;19.090;2024-01-25T18:37:23;61888.91;;;-147.19;100.00
68508;BME280;55510;49.560;19.090;2024-01-25T18:40:23;61888.91;;;-147.19;100.00
68508;BME280;55510;49.560;19.090;2024-01-25T18:43:24;61888.91;;;-147.19;100.00
68508;BME280;55510;49.560;19.090;2024-01-25T18:46:25;61888.91;;;-147.19;100.00
68508;BME280;55510;49.560;19.090;2024-01-25T18:49:25;61888.91;;;-147.19;100.00
68508;BME280;55510;49.560;19.090;2024-01-25T18:52:26;61888.91;;;-147.19;100.00
68508;BME280;55510;49.560;19.090;2024-01-25T18:55:27;61888.91;;;-147.19;100.00
68508;BME280;55510;49.560;19.090;2024-01-25T18:58:28;61888.91;;;-147.19;100.00
68508;BME280;55510;49.560;19.090;2024-01-25T19:01:31;61888.91;;;-147.19;100.00
68508;BME280;55510;49.560;19.090;2024-01-25T19:04:32;61888.91;;;-147.19;100.00
68508;BME280;55510;49.560;19.090;2024-01-25T19:07:37;61888.91;;;-147.19;100.00
68508;BME280;55510;49.560;19.090;2024-01-25T19:10:38;61888.91;;;-147.19;100.00
68508;BME280;55510;49.560;19.090;2024-01-25T19:13:38;61888.91;;;-147.19;100.00
68508;BME280;55510;49.560;19.090;2024-01-25T19:16:39;61888.91;;;-147.19;100.00
